Terminal Aerodrome Forecast
Issued by NWS

Current Version | Previous Version | Text Only | Print | Product List | Glossary On
Versions: 1 2 3 4 5 6 7 8 9 10 11 12 13 14 15 16 17 18 19 20 21 22 23 24 25 26 27 28 29 30 31 32 33 34 35 36 37 38 39 40 41 42 43 44 45 46 47 48 49 50
000
FTUS41 KCTP 081746
TAFBFD
TAF
KBFD 081746Z 0818/0918 26008G16KT P6SM BKN028 OVC035
     FM090000 28010G20KT 4SM -SHSN OVC010
     FM090600 29011G20KT 2SM -SHSN OVC010
     FM091400 30010G17KT P6SM OVC025 PROB30 0914/0918 1 1/2SM -SN
      OVC015=

USA.gov is the U.S. government's official web portal to all federal, state and local government web resources and services.